Time;durP1;ratioP1;P1;durP2;ratioP2;P2;SDS_P1;SDS_P2;PMS_P1;PMS_P2;Temp;Humidity;BMP_temperature;BMP_pressure;BME280_temperature;BME280_humidity;BME280_pressure;Samples;Min_cycle;Max_cycle;Signal;HPM_P1;HPM_P2
2022/04/01 00:01:42;;;;;;;5.10;1.45;;;1.10;99.90;;;;;;4958957;29;20415;-58
2022/04/01 00:04:08;;;;;;;4.88;1.40;;;1.10;99.90;;;;;;4961186;28;20420;-58
2022/04/01 00:06:34;;;;;;;5.03;1.60;;;1.10;99.90;;;;;;4958762;29;20035;-58
2022/04/01 00:09:00;;;;;;;5.80;1.60;;;1.10;99.90;;;;;;4944066;29;20054;-58
2022/04/01 00:11:26;;;;;;;5.13;1.50;;;1.10;99.90;;;;;;4960381;29;20520;-58
2022/04/01 00:13:51;;;;;;;7.38;1.60;;;1.10;99.90;;;;;;4960461;29;20039;-58
2022/04/01 00:16:17;;;;;;;5.63;1.65;;;1.10;99.90;;;;;;4960619;29;20130;-58
2022/04/01 00:18:43;;;;;;;6.90;1.50;;;1.10;99.90;;;;;;4959857;28;20051;-58
2022/04/01 00:21:08;;;;;;;3.53;1.40;;;1.10;99.90;;;;;;4961265;29;20050;-58
2022/04/01 00:23:34;;;;;;;6.10;1.60;;;1.10;99.90;;;;;;4959876;28;20039;-58
2022/04/01 00:26:00;;;;;;;6.10;1.88;;;1.10;99.90;;;;;;4961503;28;20047;-58
2022/04/01 00:28:26;;;;;;;4.88;1.63;;;1.20;99.90;;;;;;4960312;28;20046;-58
2022/04/01 00:30:54;;;;;;;7.88;1.98;;;1.20;99.90;;;;;;4960520;29;20047;-58
2022/04/01 00:33:21;;;;;;;4.85;1.60;;;1.10;99.90;;;;;;4961042;28;20047;-58
2022/04/01 00:35:46;;;;;;;9.00;1.70;;;1.10;99.90;;;;;;4960066;28;20042;-58
2022/04/01 00:38:13;;;;;;;5.30;1.52;;;1.10;99.90;;;;;;4960785;29;20138;-58
2022/04/01 00:40:39;;;;;;;5.00;1.50;;;1.10;99.90;;;;;;4959624;28;20111;-58
2022/04/01 00:43:05;;;;;;;3.28;1.73;;;1.20;99.90;;;;;;4961069;29;20054;-58
2022/04/01 00:45:31;;;;;;;4.30;1.23;;;1.20;99.90;;;;;;4959725;28;20319;-58
2022/04/01 00:48:01;;;;;;;6.05;1.67;;;1.20;99.90;;;;;;4958847;29;20047;-58
2022/04/01 00:50:32;;;;;;;5.63;1.40;;;1.10;99.90;;;;;;4959039;29;20508;-59
2022/04/01 00:52:58;;;;;;;5.40;1.63;;;1.10;99.90;;;;;;4959869;28;20098;-58
2022/04/01 00:55:26;;;;;;;6.18;1.95;;;1.10;99.90;;;;;;4960834;28;20036;-58
2022/04/01 00:57:52;;;;;;;6.15;1.75;;;1.20;99.90;;;;;;4959541;28;20067;-57
2022/04/01 01:00:19;;;;;;;5.05;1.50;;;1.20;99.90;;;;;;4960829;28;20542;-58
2022/04/01 01:02:45;;;;;;;7.22;2.05;;;1.20;99.90;;;;;;4959736;29;20054;-58
2022/04/01 01:05:11;;;;;;;8.07;1.40;;;1.20;99.90;;;;;;4958921;29;20395;-58
2022/04/01 01:07:42;;;;;;;4.07;1.33;;;1.20;99.90;;;;;;4960244;28;20103;-58
2022/04/01 01:10:14;;;;;;;5.68;1.92;;;1.20;99.90;;;;;;4959686;28;20044;-58
2022/04/01 01:12:41;;;;;;;5.32;1.70;;;1.20;99.90;;;;;;4960519;28;20039;-58
2022/04/01 01:15:10;;;;;;;7.75;1.67;;;1.20;99.90;;;;;;4959515;28;20051;-58
2022/04/01 01:17:40;;;;;;;5.78;1.45;;;1.20;99.90;;;;;;4962838;28;20043;-59
2022/04/01 01:20:12;;;;;;;5.70;1.67;;;1.20;99.90;;;;;;4962177;29;20078;-57
2022/04/01 01:22:42;;;;;;;5.22;1.80;;;1.20;99.90;;;;;;4963487;28;20297;-58
2022/04/01 01:25:09;;;;;;;6.05;2.28;;;1.30;99.90;;;;;;4964022;28;20043;-58
2022/04/01 01:27:36;;;;;;;4.85;1.60;;;1.20;99.90;;;;;;4962888;28;20051;-57
2022/04/01 01:30:03;;;;;;;4.72;1.52;;;1.30;99.90;;;;;;4963940;28;20039;-58
2022/04/01 01:32:29;;;;;;;5.00;1.80;;;1.30;99.90;;;;;;4962814;28;20528;-58
2022/04/01 01:34:56;;;;;;;6.85;1.40;;;1.30;99.90;;;;;;4963655;28;20114;-58
2022/04/01 01:37:22;;;;;;;6.03;1.70;;;1.30;99.90;;;;;;4963136;28;20075;-57
2022/04/01 01:39:48;;;;;;;5.05;1.52;;;1.30;99.90;;;;;;4962716;28;20059;-57
2022/04/01 01:42:15;;;;;;;8.25;1.73;;;1.30;99.90;;;;;;4962365;29;20055;-58
2022/04/01 01:44:41;;;;;;;9.55;1.70;;;1.20;99.90;;;;;;4962460;28;20058;-57
2022/04/01 01:47:07;;;;;;;5.68;1.55;;;1.30;99.90;;;;;;4963508;28;20039;-57
2022/04/01 01:49:34;;;;;;;8.13;1.73;;;1.30;99.90;;;;;;4962436;28;20043;-58
2022/04/01 01:54:45;;;;;;;6.45;1.70;;;1.30;99.90;;;;;;4962984;29;20094;-58
2022/04/01 01:57:14;;;;;;;7.53;1.80;;;1.30;99.90;;;;;;4945318;29;20079;-58
2022/04/01 01:59:40;;;;;;;5.07;1.48;;;1.30;99.90;;;;;;4963517;28;20047;-58
2022/04/01 02:02:07;;;;;;;5.60;1.60;;;1.30;99.90;;;;;;4962218;29;20043;-58
2022/04/01 02:04:34;;;;;;;6.80;1.40;;;1.30;99.90;;;;;;4963260;28;20516;-58
2022/04/01 02:07:00;;;;;;;6.82;1.50;;;1.30;99.90;;;;;;4960978;29;20055;-57
2022/04/01 02:09:26;;;;;;;8.93;1.85;;;1.30;99.90;;;;;;4962859;28;20067;-58
2022/04/01 02:11:52;;;;;;;5.53;1.73;;;1.30;99.90;;;;;;4963026;29;20043;-57
2022/04/01 02:14:18;;;;;;;6.38;1.80;;;1.30;99.90;;;;;;4962343;28;20110;-57
2022/04/01 02:16:43;;;;;;;4.57;1.50;;;1.30;99.90;;;;;;4963018;29;20047;-58
2022/04/01 02:19:13;;;;;;;8.15;1.90;;;1.20;99.90;;;;;;4961662;28;20054;-58
2022/04/01 02:21:39;;;;;;;6.70;1.67;;;1.30;99.90;;;;;;4963164;28;20043;-57
2022/04/01 02:24:06;;;;;;;8.13;1.67;;;1.30;99.90;;;;;;4961977;29;20078;-58
2022/04/01 02:26:34;;;;;;;6.72;2.03;;;1.30;99.90;;;;;;4962636;28;20427;-58
2022/04/01 02:29:03;;;;;;;6.55;1.90;;;1.30;99.90;;;;;;4961393;28;20031;-58
2022/04/01 02:31:30;;;;;;;5.57;1.55;;;1.30;99.90;;;;;;4960689;29;20047;-58
2022/04/01 02:33:56;;;;;;;5.65;1.55;;;1.30;99.90;;;;;;4962910;28;20435;-58
2022/04/01 02:36:22;;;;;;;5.38;1.50;;;1.40;99.90;;;;;;4961438;29;20078;-58
2022/04/01 02:38:50;;;;;;;5.90;1.60;;;1.30;99.90;;;;;;4962741;29;20055;-58
2022/04/01 02:41:16;;;;;;;7.38;1.90;;;1.30;99.90;;;;;;4960305;29;20416;-57
2022/04/01 02:43:42;;;;;;;9.43;1.67;;;1.40;99.90;;;;;;4962034;28;20040;-57
2022/04/01 02:46:10;;;;;;;6.97;1.80;;;1.30;99.90;;;;;;4962070;29;20054;-57
2022/04/01 02:48:36;;;;;;;7.38;1.70;;;1.30;99.90;;;;;;4961227;29;20266;-58
2022/04/01 02:51:02;;;;;;;5.55;1.63;;;1.30;99.90;;;;;;4961360;29;20047;-58
2022/04/01 02:53:27;;;;;;;8.40;1.70;;;1.30;99.90;;;;;;4961290;28;20114;-62
2022/04/01 02:55:54;;;;;;;5.68;1.40;;;1.30;99.90;;;;;;4962600;29;20115;-58
2022/04/01 02:58:20;;;;;;;9.02;1.58;;;1.30;99.90;;;;;;4961455;28;20035;-57
2022/04/01 03:00:46;;;;;;;9.73;2.88;;;1.30;99.90;;;;;;4961962;29;20050;-58
2022/04/01 03:03:12;;;;;;;6.65;1.70;;;1.30;99.90;;;;;;4961816;28;20039;-57
2022/04/01 03:05:42;;;;;;;4.45;1.33;;;1.30;99.90;;;;;;4961185;28;20601;-57
2022/04/01 03:08:09;;;;;;;9.10;1.60;;;1.30;99.90;;;;;;4962356;29;20047;-57
2022/04/01 03:10:37;;;;;;;4.93;1.60;;;1.30;99.90;;;;;;4960913;28;20043;-58
2022/04/01 03:13:04;;;;;;;4.80;1.50;;;1.30;99.90;;;;;;4962188;28;20086;-57
2022/04/01 03:15:32;;;;;;;7.90;1.40;;;1.30;99.90;;;;;;4961025;28;20043;-57
2022/04/01 03:17:58;;;;;;;6.13;1.85;;;1.30;99.90;;;;;;4961193;28;20071;-58
2022/04/01 03:20:25;;;;;;;6.57;1.70;;;1.30;99.90;;;;;;4961287;28;20080;-58
2022/04/01 03:22:52;;;;;;;4.45;1.20;;;1.30;99.90;;;;;;4959664;29;20380;-58
2022/04/01 03:25:19;;;;;;;6.70;1.48;;;1.30;99.90;;;;;;4961764;28;20039;-58
2022/04/01 03:27:49;;;;;;;7.00;1.40;;;1.30;99.90;;;;;;4960532;28;20508;-58
2022/04/01 03:30:17;;;;;;;5.95;1.58;;;1.30;99.90;;;;;;4961820;28;20051;-58
2022/04/01 03:32:43;;;;;;;8.10;1.55;;;1.30;99.90;;;;;;4959654;29;20039;-57
2022/04/01 03:35:13;;;;;;;9.00;1.90;;;1.30;99.90;;;;;;4960112;29;20051;-58
2022/04/01 03:37:39;;;;;;;5.72;1.55;;;1.30;99.90;;;;;;4961042;28;20511;-58
2022/04/01 03:40:05;;;;;;;7.72;1.73;;;1.30;99.90;;;;;;4958669;28;20058;-58
2022/04/01 03:42:32;;;;;;;7.90;1.42;;;1.30;99.90;;;;;;4961659;28;20167;-57
2022/04/01 03:45:03;;;;;;;5.95;1.50;;;1.30;99.90;;;;;;4960500;29;20050;-58
2022/04/01 03:47:40;;;;;;;4.60;1.40;;;1.30;99.90;;;;;;4961457;28;20047;-57
2022/04/01 03:50:10;;;;;;;5.95;1.55;;;1.30;99.90;;;;;;4960846;29;20051;-57
2022/04/01 03:52:36;;;;;;;11.20;1.83;;;1.40;99.90;;;;;;4960690;28;20031;-58
2022/04/01 03:55:05;;;;;;;5.90;1.48;;;1.40;99.90;;;;;;4959924;29;20558;-57
2022/04/01 03:57:36;;;;;;;8.10;2.17;;;1.40;99.90;;;;;;4960492;28;20047;-58
2022/04/01 04:00:05;;;;;;;5.32;1.50;;;1.40;99.90;;;;;;4961328;28;20051;-58
2022/04/01 04:02:34;;;;;;;6.18;1.65;;;1.40;99.90;;;;;;4960391;28;20102;-58
2022/04/01 04:05:03;;;;;;;6.63;1.92;;;1.40;99.90;;;;;;4960675;28;20103;-58
2022/04/01 04:07:31;;;;;;;5.85;1.50;;;1.40;99.90;;;;;;4959496;29;20079;-58
2022/04/01 04:09:58;;;;;;;9.50;1.52;;;1.40;99.90;;;;;;4960240;28;20051;-58
2022/04/01 04:12:27;;;;;;;5.15;1.50;;;1.40;99.90;;;;;;4961236;29;20039;-58
2022/04/01 04:14:53;;;;;;;5.63;1.52;;;1.50;99.90;;;;;;4958181;28;20083;-57
2022/04/01 04:17:39;;;;;;;6.35;1.50;;;1.40;99.90;;;;;;4961095;28;20054;-58
2022/04/01 04:20:18;;;;;;;8.70;1.73;;;1.40;99.90;;;;;;4960357;28;20063;-58
2022/04/01 04:23:13;;;;;;;6.05;1.70;;;1.40;99.90;;;;;;4942797;29;20484;-58
2022/04/01 04:25:39;;;;;;;6.22;1.85;;;1.40;99.90;;;;;;4942094;29;20048;-58
2022/04/01 04:28:10;;;;;;;6.50;2.40;;;1.40;99.90;;;;;;4941024;29;20082;-57
2022/04/01 04:30:49;;;;;;;9.45;2.20;;;1.40;99.90;;;;;;4941365;29;20043;-58
2022/04/01 04:33:21;;;;;;;7.75;1.50;;;1.50;99.90;;;;;;4941490;29;20047;-58
2022/04/01 04:35:49;;;;;;;6.28;1.75;;;1.50;99.90;;;;;;4940760;29;20515;-58
2022/04/01 04:38:18;;;;;;;7.68;1.77;;;1.50;99.90;;;;;;4940471;29;20564;-58
2022/04/01 04:40:44;;;;;;;7.07;1.65;;;1.50;99.90;;;;;;4940671;29;20091;-58
2022/04/01 04:43:12;;;;;;;8.73;1.88;;;1.50;99.90;;;;;;4941784;29;20039;-58
2022/04/01 04:45:38;;;;;;;9.88;1.85;;;1.40;99.90;;;;;;4940722;29;20040;-58
2022/04/01 04:48:05;;;;;;;7.53;1.80;;;1.50;99.90;;;;;;4939972;29;20107;-58
2022/04/01 04:50:32;;;;;;;8.45;2.13;;;1.50;99.90;;;;;;4941531;29;20099;-58
2022/04/01 04:52:57;;;;;;;9.38;1.52;;;1.50;99.90;;;;;;4943853;29;20055;-58
2022/04/01 04:55:24;;;;;;;7.35;1.65;;;1.50;99.90;;;;;;4944313;29;20389;-58
2022/04/01 04:57:52;;;;;;;4.00;1.45;;;1.50;99.90;;;;;;4944210;29;20449;-57
2022/04/01 05:00:19;;;;;;;6.78;1.40;;;1.50;99.90;;;;;;4945218;29;20049;-57
2022/04/01 05:03:24;;;;;;;6.82;1.88;;;1.50;99.90;;;;;;4944590;29;20528;-57
2022/04/01 05:05:56;;;;;;;6.57;1.83;;;1.50;99.90;;;;;;4944048;29;20043;-57
2022/04/01 05:08:33;;;;;;;6.88;1.50;;;1.50;99.90;;;;;;4945441;29;20095;-58
2022/04/01 05:11:08;;;;;;;7.60;2.00;;;1.50;99.90;;;;;;4944174;29;20107;-57
2022/04/01 05:13:45;;;;;;;5.55;1.42;;;1.50;99.90;;;;;;4944939;29;20072;-58
2022/04/01 05:16:30;;;;;;;5.65;2.17;;;1.50;99.90;;;;;;4944819;29;20040;-58
2022/04/01 05:19:10;;;;;;;6.35;1.85;;;1.60;99.90;;;;;;4943830;29;20051;-57
2022/04/01 05:21:49;;;;;;;9.52;2.35;;;1.60;99.90;;;;;;4945103;29;20063;-58
2022/04/01 05:24:18;;;;;;;6.88;2.35;;;1.60;99.90;;;;;;4952031;29;20051;-57
2022/04/01 05:26:52;;;;;;;8.13;2.35;;;1.60;99.90;;;;;;4959650;28;20051;-57
2022/04/01 05:29:26;;;;;;;9.35;2.30;;;1.50;99.90;;;;;;4960111;29;20054;-58
2022/04/01 05:32:05;;;;;;;7.40;2.40;;;1.60;99.90;;;;;;4957577;29;20058;-58
2022/04/01 05:34:49;;;;;;;7.63;2.72;;;1.60;99.90;;;;;;4958922;29;20047;-57
2022/04/01 05:37:17;;;;;;;9.10;3.00;;;1.60;99.90;;;;;;4959014;28;20071;-58
2022/04/01 05:39:46;;;;;;;7.07;2.10;;;1.60;99.90;;;;;;4959229;29;20062;-58
2022/04/01 05:42:13;;;;;;;7.07;1.70;;;1.60;99.90;;;;;;4958592;29;20051;-57
2022/04/01 05:44:42;;;;;;;9.00;1.95;;;1.60;99.90;;;;;;4958612;29;20070;-58
2022/04/01 05:47:08;;;;;;;10.32;2.67;;;1.70;99.90;;;;;;4959984;29;20094;-58
2022/04/01 05:49:40;;;;;;;9.57;1.98;;;1.60;99.90;;;;;;4958664;29;20062;-57
2022/04/01 05:52:09;;;;;;;7.28;2.38;;;1.70;99.90;;;;;;4958194;29;20041;-58
2022/04/01 05:54:37;;;;;;;8.15;2.40;;;1.70;99.90;;;;;;4959580;29;20051;-58
2022/04/01 05:57:03;;;;;;;6.22;2.10;;;1.70;99.90;;;;;;4958853;29;20200;-57
2022/04/01 05:59:29;;;;;;;9.52;2.42;;;1.70;99.90;;;;;;4960087;29;20396;-58
2022/04/01 06:01:54;;;;;;;5.57;1.52;;;1.70;99.90;;;;;;4957929;28;20050;-58
2022/04/01 06:04:51;;;;;;;6.68;1.52;;;1.70;99.90;;;;;;4958971;29;20065;-58
2022/04/01 06:07:38;;;;;;;6.68;1.90;;;1.70;99.90;;;;;;4950711;29;20391;-58
2022/04/01 06:10:09;;;;;;;8.35;2.20;;;1.70;99.90;;;;;;4947853;29;20083;-58
2022/04/01 06:12:35;;;;;;;7.93;2.63;;;1.80;99.90;;;;;;4949714;28;20036;-58
2022/04/01 06:15:25;;;;;;;6.75;2.17;;;1.70;99.90;;;;;;4942327;29;20131;-57
2022/04/01 06:18:07;;;;;;;5.93;1.60;;;1.80;99.90;;;;;;4939482;29;20059;-57
2022/04/01 06:20:38;;;;;;;5.72;1.35;;;1.80;99.90;;;;;;4939892;29;20103;-57
2022/04/01 06:23:35;;;;;;;7.75;1.77;;;1.80;99.90;;;;;;4939276;29;20043;-59
2022/04/01 06:26:01;;;;;;;5.47;1.60;;;1.80;99.90;;;;;;4959062;29;20054;-58
2022/04/01 06:28:44;;;;;;;9.00;2.88;;;1.90;99.90;;;;;;4956807;28;20044;-58
2022/04/01 06:31:12;;;;;;;8.60;2.53;;;1.90;99.90;;;;;;4958169;28;20062;-58
2022/04/01 06:33:47;;;;;;;9.00;2.08;;;1.90;99.90;;;;;;4959199;28;20129;-58
2022/04/01 06:36:18;;;;;;;9.27;1.85;;;1.90;99.90;;;;;;4957732;28;20043;-58
2022/04/01 06:39:03;;;;;;;8.13;1.80;;;1.90;99.90;;;;;;4958702;28;20114;-58
2022/04/01 06:41:35;;;;;;;5.90;1.80;;;1.90;99.90;;;;;;4958296;28;20078;-58
2022/04/01 06:44:01;;;;;;;9.27;2.03;;;2.00;99.90;;;;;;4957879;28;20046;-57
2022/04/01 06:46:28;;;;;;;7.85;1.83;;;2.00;99.90;;;;;;4958686;28;20074;-57
2022/04/01 06:48:54;;;;;;;8.13;2.28;;;2.00;99.90;;;;;;4940189;29;20071;-58
2022/04/01 06:51:19;;;;;;;6.25;1.80;;;2.10;99.90;;;;;;4959151;28;20050;-58
2022/04/01 06:53:45;;;;;;;7.80;1.90;;;2.10;99.90;;;;;;4957580;29;20058;-58
2022/04/01 06:56:11;;;;;;;6.20;1.60;;;2.20;99.90;;;;;;4958382;29;20086;-58
2022/04/01 06:58:37;;;;;;;6.30;2.05;;;2.30;99.90;;;;;;4940837;29;20142;-57
2022/04/01 07:01:03;;;;;;;5.90;1.75;;;2.20;99.90;;;;;;4956421;29;20098;-57
2022/04/01 07:03:30;;;;;;;8.48;2.25;;;2.30;99.90;;;;;;4958483;29;20088;-58
2022/04/01 07:05:56;;;;;;;5.95;1.95;;;2.30;99.90;;;;;;4957273;28;20059;-58
2022/04/01 07:08:22;;;;;;;7.53;2.55;;;2.30;99.90;;;;;;4958610;28;20051;-58
2022/04/01 07:10:48;;;;;;;8.43;2.10;;;2.40;99.90;;;;;;4955845;29;20074;-58
2022/04/01 07:13:15;;;;;;;7.60;1.98;;;2.40;99.90;;;;;;4956537;29;20066;-58
2022/04/01 07:15:41;;;;;;;7.60;1.98;;;2.40;99.90;;;;;;4956820;28;20103;-58
2022/04/01 07:18:07;;;;;;;7.07;2.55;;;2.50;99.90;;;;;;4957657;28;20047;-58
2022/04/01 07:20:34;;;;;;;6.60;1.60;;;2.50;99.90;;;;;;4958096;28;20081;-58
2022/04/01 07:23:00;;;;;;;5.32;1.88;;;2.50;99.90;;;;;;4957255;29;20074;-58
2022/04/01 07:25:26;;;;;;;5.72;1.50;;;2.60;99.90;;;;;;4957655;28;20043;-58
2022/04/01 07:27:53;;;;;;;7.22;1.45;;;2.60;99.90;;;;;;4956855;29;20039;-58
2022/04/01 07:30:19;;;;;;;5.20;1.52;;;2.60;99.90;;;;;;4958137;28;20051;-59
2022/04/01 07:32:57;;;;;;;4.78;1.40;;;2.70;99.90;;;;;;4957369;28;20467;-59
2022/04/01 07:35:23;;;;;;;5.30;1.95;;;2.70;99.90;;;;;;4957135;28;20111;-59
2022/04/01 07:37:49;;;;;;;6.72;1.73;;;2.80;99.90;;;;;;4957439;28;20209;-58
2022/04/01 07:40:15;;;;;;;10.10;2.22;;;2.80;99.90;;;;;;4956303;29;20058;-58
2022/04/01 07:42:41;;;;;;;5.45;2.03;;;2.90;99.90;;;;;;4958023;29;20075;-58
2022/04/01 07:45:07;;;;;;;6.43;1.45;;;2.90;99.90;;;;;;4956549;28;20048;-58
2022/04/01 07:47:34;;;;;;;7.53;2.20;;;2.90;99.90;;;;;;4956234;29;20054;-59
2022/04/01 07:50:01;;;;;;;6.38;1.70;;;2.90;99.90;;;;;;4956640;28;20054;-58
2022/04/01 07:52:29;;;;;;;5.22;1.70;;;3.00;99.90;;;;;;4956995;29;20050;-58
2022/04/01 07:54:55;;;;;;;5.88;1.45;;;3.10;99.90;;;;;;4957523;28;20051;-59
2022/04/01 07:57:21;;;;;;;9.55;2.78;;;3.00;99.90;;;;;;4956606;29;20039;-58
2022/04/01 07:59:47;;;;;;;4.03;1.40;;;3.10;99.90;;;;;;4957718;29;20070;-56
2022/04/01 08:02:14;;;;;;;6.45;1.42;;;3.00;99.90;;;;;;4954785;29;20399;-58
2022/04/01 08:04:39;;;;;;;4.30;1.42;;;3.00;99.90;;;;;;4957341;28;20081;-58
2022/04/01 08:07:06;;;;;;;8.13;1.60;;;3.10;99.90;;;;;;4956594;28;20054;-58
2022/04/01 08:09:33;;;;;;;4.13;1.42;;;3.10;99.90;;;;;;4956932;29;20082;-59
2022/04/01 08:12:01;;;;;;;6.90;1.80;;;3.00;99.90;;;;;;4957425;28;20118;-59
2022/04/01 08:14:27;;;;;;;6.30;1.42;;;3.10;99.90;;;;;;4955782;28;20051;-58
2022/04/01 08:16:53;;;;;;;5.63;1.80;;;3.20;99.90;;;;;;4957406;28;20055;-58
2022/04/01 08:19:19;;;;;;;3.60;1.20;;;3.10;99.90;;;;;;4954877;29;20150;-58
2022/04/01 08:21:45;;;;;;;4.43;1.30;;;3.00;99.90;;;;;;4957287;29;20067;-58
2022/04/01 08:24:12;;;;;;;4.30;1.40;;;3.00;99.90;;;;;;4956475;28;20375;-58
2022/04/01 08:26:39;;;;;;;5.72;1.38;;;3.10;99.90;;;;;;4959490;28;20054;-58
2022/04/01 08:29:04;;;;;;;3.33;1.10;;;3.10;99.90;;;;;;4961145;28;20182;-57
2022/04/01 08:31:33;;;;;;;4.97;1.30;;;3.10;99.90;;;;;;4960015;28;20095;-58
2022/04/01 08:33:59;;;;;;;4.78;1.48;;;3.00;99.90;;;;;;4961603;29;20098;-58
2022/04/01 08:36:25;;;;;;;5.60;1.60;;;3.00;99.90;;;;;;4959574;28;20089;-57
2022/04/01 08:38:52;;;;;;;3.90;1.42;;;3.00;99.90;;;;;;4959678;29;20498;-58
2022/04/01 08:41:20;;;;;;;5.85;1.80;;;3.10;99.90;;;;;;4960278;29;20087;-58
2022/04/01 08:43:48;;;;;;;3.83;1.23;;;3.10;99.90;;;;;;4960772;28;20047;-58
2022/04/01 08:46:15;;;;;;;4.32;1.45;;;3.10;99.90;;;;;;4960494;28;20051;-58
2022/04/01 08:48:43;;;;;;;3.97;1.35;;;3.20;99.90;;;;;;4953577;28;20460;-58
2022/04/01 08:51:10;;;;;;;4.47;1.30;;;3.20;99.90;;;;;;4949284;28;20036;-58
2022/04/01 08:53:41;;;;;;;3.83;1.30;;;3.20;99.90;;;;;;4944787;28;20147;-58
2022/04/01 08:56:07;;;;;;;5.33;1.40;;;3.30;99.90;;;;;;4940413;29;20083;-58
2022/04/01 08:58:33;;;;;;;6.93;1.45;;;3.30;99.90;;;;;;4923689;29;20085;-58
2022/04/01 09:01:00;;;;;;;4.65;1.40;;;3.40;99.90;;;;;;4940673;29;20623;-58
2022/04/01 09:03:28;;;;;;;5.30;1.48;;;3.60;99.90;;;;;;4942036;29;20099;-58
2022/04/01 09:05:59;;;;;;;4.88;1.58;;;3.70;99.90;;;;;;4957882;29;20264;-58
2022/04/01 09:08:42;;;;;;;5.28;1.48;;;3.70;99.90;;;;;;4960927;28;20632;-58
2022/04/01 09:11:08;;;;;;;8.73;1.70;;;3.80;99.90;;;;;;4959740;28;20043;-58
2022/04/01 09:13:43;;;;;;;5.13;1.58;;;3.90;99.90;;;;;;4959612;28;20530;-58
2022/04/01 09:16:22;;;;;;;6.13;1.90;;;3.90;99.90;;;;;;4960036;28;20622;-58
2022/04/01 09:18:48;;;;;;;6.03;2.28;;;4.00;99.90;;;;;;4959066;28;20074;-58
2022/04/01 09:21:14;;;;;;;4.68;1.65;;;4.10;99.90;;;;;;4960625;29;20247;-58
2022/04/01 09:23:46;;;;;;;3.70;1.38;;;4.20;99.90;;;;;;4959365;28;20039;-58
2022/04/01 09:26:12;;;;;;;6.72;1.90;;;4.40;99.90;;;;;;4959941;28;20035;-58
2022/04/01 09:28:40;;;;;;;5.22;1.40;;;4.50;99.90;;;;;;4959964;29;20058;-58
2022/04/01 09:31:15;;;;;;;5.82;1.70;;;4.50;99.90;;;;;;4959334;28;20043;-58
2022/04/01 09:33:43;;;;;;;5.00;1.50;;;4.50;99.90;;;;;;4960071;28;20046;-58
2022/04/01 09:36:17;;;;;;;4.70;1.88;;;4.50;99.90;;;;;;4958946;29;20054;-58
2022/04/01 09:38:58;;;;;;;4.68;1.48;;;4.50;99.90;;;;;;4959502;28;20110;-59
2022/04/01 09:41:36;;;;;;;5.57;1.90;;;4.50;99.90;;;;;;4959535;28;20055;-58
2022/04/01 09:44:23;;;;;;;3.95;1.73;;;4.40;99.90;;;;;;4958899;29;20039;-58
2022/04/01 09:46:52;;;;;;;6.25;2.03;;;4.60;99.90;;;;;;4959908;28;20047;-58
2022/04/01 09:49:42;;;;;;;4.35;1.60;;;4.70;99.90;;;;;;4957191;28;20043;-58
2022/04/01 09:52:16;;;;;;;5.50;1.98;;;4.80;99.90;;;;;;4959361;28;20047;-58
2022/04/01 09:54:49;;;;;;;4.20;1.65;;;4.70;99.90;;;;;;4959775;28;20047;-59
2022/04/01 09:57:16;;;;;;;6.93;2.00;;;4.70;99.90;;;;;;4956972;29;20313;-58
2022/04/01 09:59:43;;;;;;;5.22;1.80;;;4.80;99.90;;;;;;4959694;28;20082;-58
2022/04/01 10:02:09;;;;;;;7.38;1.58;;;4.80;99.90;;;;;;4956905;29;20126;-58
2022/04/01 10:04:34;;;;;;;5.43;1.63;;;4.80;99.90;;;;;;4959418;29;20082;-58
2022/04/01 10:07:03;;;;;;;4.32;1.30;;;4.80;99.90;;;;;;4958925;28;20051;-58
2022/04/01 10:09:30;;;;;;;5.03;1.60;;;4.80;99.90;;;;;;4958846;28;20054;-58
2022/04/01 10:11:59;;;;;;;3.85;1.40;;;5.00;99.90;;;;;;4959419;28;20114;-58
2022/04/01 10:14:28;;;;;;;4.25;1.27;;;5.00;99.90;;;;;;4958119;28;20058;-58
2022/04/01 10:16:56;;;;;;;5.03;1.50;;;5.20;99.90;;;;;;4958308;29;20074;-58
2022/04/01 10:19:34;;;;;;;9.98;2.58;;;5.10;99.90;;;;;;4958235;28;20051;-58
2022/04/01 10:22:01;;;;;;;4.93;1.58;;;5.30;99.90;;;;;;4958742;28;20090;-59
2022/04/01 10:24:48;;;;;;;5.32;1.80;;;5.50;99.90;;;;;;4958627;28;20055;-56
2022/04/01 10:27:23;;;;;;;4.25;1.33;;;5.50;99.90;;;;;;4958023;29;20043;-58
2022/04/01 10:29:49;;;;;;;5.68;1.23;;;5.70;99.90;;;;;;4959741;28;20106;-57
2022/04/01 10:32:27;;;;;;;3.78;1.15;;;5.60;99.90;;;;;;4960216;29;20078;-58
2022/04/01 10:34:56;;;;;;;4.03;1.23;;;5.70;99.90;;;;;;4961288;28;20049;-58
2022/04/01 10:37:25;;;;;;;4.18;1.20;;;5.80;99.90;;;;;;4962103;28;20043;-57
2022/04/01 10:39:51;;;;;;;4.50;1.30;;;5.70;99.90;;;;;;4961312;28;20043;-58
2022/04/01 10:42:18;;;;;;;5.78;1.40;;;5.70;99.90;;;;;;4961048;29;20043;-58
2022/04/01 10:44:56;;;;;;;4.70;1.67;;;5.80;99.90;;;;;;4959941;29;20051;-58
2022/04/01 10:51:36;;;;;;;3.72;1.30;;;5.90;99.90;;;;;;4962229;28;20523;-58
2022/04/01 10:53:41;;;;;;;5.78;1.25;;;5.90;99.90;;;;;;4960844;29;20515;-58
2022/04/01 10:56:24;;;;;;;7.68;1.48;;;6.00;99.90;;;;;;4962042;28;20050;-58
2022/04/01 10:59:03;;;;;;;3.72;1.20;;;5.90;99.90;;;;;;4960445;29;20051;-58
2022/04/01 11:01:30;;;;;;;4.60;1.50;;;6.00;99.90;;;;;;4960917;28;20047;-59
2022/04/01 11:04:13;;;;;;;2.92;1.02;;;6.00;99.90;;;;;;4962039;28;20050;-58
2022/04/01 11:07:11;;;;;;;4.03;1.20;;;5.80;99.90;;;;;;4960976;29;20051;-58
2022/04/01 11:09:53;;;;;;;4.60;1.63;;;5.90;99.90;;;;;;4961307;28;20047;-58
2022/04/01 11:12:19;;;;;;;3.33;1.10;;;5.90;99.90;;;;;;4960726;29;20507;-58
2022/04/01 11:14:56;;;;;;;4.10;1.23;;;5.80;99.90;;;;;;4960619;28;20055;-58
2022/04/01 11:17:27;;;;;;;4.28;1.23;;;5.90;99.90;;;;;;4961565;29;20132;-59
2022/04/01 11:20:10;;;;;;;5.13;1.33;;;5.80;99.90;;;;;;4960795;28;20071;-56
2022/04/01 11:22:42;;;;;;;;;;;5.90;99.90;;;;;;4951020;28;20129;-58
2022/04/01 11:25:31;;;;;;;6.85;2.03;;;5.70;99.90;;;;;;4952639;29;20449;-58
2022/04/01 11:27:56;;;;;;;6.03;1.30;;;5.90;99.90;;;;;;4950280;29;20459;-58
2022/04/01 11:30:33;;;;;;;3.97;1.15;;;5.90;99.90;;;;;;4951109;28;20071;-58
2022/04/01 11:33:16;;;;;;;3.67;1.02;;;5.90;99.90;;;;;;4951339;29;20047;-58
2022/04/01 11:35:44;;;;;;;4.65;1.20;;;5.90;99.90;;;;;;4956614;29;20035;-59
2022/04/01 11:38:16;;;;;;;5.10;1.35;;;5.90;99.90;;;;;;4951119;29;20059;-58
2022/04/01 11:40:43;;;;;;;3.97;1.15;;;5.80;99.90;;;;;;4951032;29;20052;-58
2022/04/01 11:43:17;;;;;;;7.60;1.48;;;5.80;99.90;;;;;;4961149;29;20137;-59
2022/04/01 11:45:44;;;;;;;5.75;1.50;;;5.70;99.90;;;;;;4948548;29;20047;-58
2022/04/01 11:48:29;;;;;;;5.40;1.35;;;5.60;99.90;;;;;;4951135;29;20035;-58
2022/04/01 11:51:01;;;;;;;5.13;1.40;;;5.60;99.90;;;;;;4950783;29;20131;-58
2022/04/01 11:53:31;;;;;;;;;;;5.60;99.90;;;;;;4942369;29;20074;-58
2022/04/01 11:55:59;;;;;;;5.78;1.52;;;5.50;99.90;;;;;;4942109;29;19922;-58
2022/04/01 11:58:27;;;;;;;5.68;1.52;;;5.50;99.90;;;;;;4940990;29;20054;-58
2022/04/01 12:00:52;;;;;;;6.00;1.30;;;5.50;99.90;;;;;;4940889;29;20413;-58
2022/04/01 12:03:19;;;;;;;4.78;1.23;;;5.40;99.90;;;;;;4941341;29;20071;-58
2022/04/01 12:05:45;;;;;;;3.80;1.17;;;5.40;99.90;;;;;;4959648;29;20051;-58
2022/04/01 12:11:00;;;;;;;8.30;1.80;;;5.50;99.90;;;;;;4955005;29;20058;-58
2022/04/01 12:13:28;;;;;;;4.65;1.42;;;5.50;99.90;;;;;;4947725;29;20106;-57
2022/04/01 12:15:56;;;;;;;4.07;1.20;;;5.60;99.90;;;;;;4941186;29;20055;-58
2022/04/01 12:18:23;;;;;;;5.63;1.40;;;5.50;99.90;;;;;;4936996;29;20078;-58
2022/04/01 12:20:50;;;;;;;5.00;1.30;;;5.50;99.90;;;;;;4938158;29;20051;-57
2022/04/01 12:23:18;;;;;;;4.10;1.33;;;5.40;99.90;;;;;;4937923;29;20056;-58
2022/04/01 12:25:45;;;;;;;5.72;1.40;;;5.50;99.90;;;;;;4957248;28;20043;-58
2022/04/01 12:28:13;;;;;;;5.05;1.45;;;5.50;99.90;;;;;;4956389;28;20058;-58
2022/04/01 12:30:52;;;;;;;8.93;2.10;;;5.60;99.90;;;;;;4956946;28;20039;-58
2022/04/01 12:33:21;;;;;;;6.95;1.67;;;5.70;99.90;;;;;;4957285;28;20054;-58
2022/04/01 12:36:01;;;;;;;4.50;1.50;;;5.70;99.90;;;;;;4954594;28;20047;-58
2022/04/01 12:38:30;;;;;;;6.35;1.38;;;5.80;99.90;;;;;;4957173;28;20637;-58
2022/04/01 12:41:04;;;;;;;6.82;1.50;;;5.80;99.90;;;;;;4956153;28;20063;-58
2022/04/01 12:43:48;;;;;;;4.85;1.40;;;5.90;99.90;;;;;;4955308;29;20051;-58
2022/04/01 12:46:15;;;;;;;7.80;1.73;;;6.00;99.90;;;;;;4955376;28;20472;-59
2022/04/01 12:48:48;;;;;;;5.13;1.50;;;6.10;99.90;;;;;;4955771;29;20047;-58
2022/04/01 12:51:18;;;;;;;4.47;1.38;;;6.00;99.90;;;;;;4957706;28;20653;-59
2022/04/01 12:53:58;;;;;;;4.55;1.50;;;5.90;99.90;;;;;;4955894;28;20066;-58
2022/04/01 12:56:30;;;;;;;4.07;1.40;;;5.90;99.90;;;;;;4956504;29;20055;-58
2022/04/01 12:59:10;;;;;;;6.95;1.65;;;5.90;99.90;;;;;;4956282;28;20051;-58
2022/04/01 13:01:41;;;;;;;5.93;1.80;;;5.80;99.90;;;;;;4955792;28;20078;-57
2022/04/01 13:04:09;;;;;;;3.95;1.58;;;5.80;99.90;;;;;;4957182;28;20047;-58
2022/04/01 13:06:36;;;;;;;8.68;1.70;;;5.70;99.90;;;;;;4955791;28;20150;-58
2022/04/01 13:09:07;;;;;;;6.22;2.00;;;5.60;99.90;;;;;;4956790;28;20504;-59
2022/04/01 13:11:45;;;;;;;6.50;2.00;;;5.60;99.90;;;;;;4938914;28;20058;-58
2022/04/01 13:14:23;;;;;;;7.28;2.05;;;5.50;99.90;;;;;;4958970;29;20403;-58
2022/04/01 13:16:51;;;;;;;6.63;1.88;;;5.40;99.90;;;;;;4960497;28;20440;-58
2022/04/01 13:19:32;;;;;;;5.80;1.92;;;5.50;99.90;;;;;;4959269;28;20083;-57
2022/04/01 13:22:00;;;;;;;5.50;1.67;;;5.50;99.90;;;;;;4959480;28;20059;-58